createdAt,value
2023-03-07T00:01:27.046Z,81.97
2023-03-07T00:03:55.402Z,81.37
2023-03-07T00:06:23.733Z,81.78
2023-03-07T00:08:52.584Z,82.70
2023-03-07T00:11:21.198Z,82.99
2023-03-07T00:13:49.308Z,82.42
2023-03-07T00:16:20.850Z,83.17
2023-03-07T00:18:49.823Z,82.83
2023-03-07T00:21:19.837Z,82.79
2023-03-07T00:23:48.807Z,83.88
2023-03-07T00:26:22.190Z,84.61
2023-03-07T00:28:52.018Z,84.43
2023-03-07T00:31:22.336Z,84.48
2023-03-07T00:33:50.608Z,84.77
2023-03-07T00:36:20.846Z,84.66
2023-03-07T00:38:49.794Z,83.64
2023-03-07T00:41:19.625Z,83.92
2023-03-07T00:43:48.278Z,84.11
2023-03-07T00:46:17.904Z,83.79
2023-03-07T00:48:48.021Z,83.28
2023-03-07T00:51:19.366Z,82.93
2023-03-07T00:53:48.311Z,83.34
2023-03-07T00:56:17.822Z,84.15
2023-03-07T00:58:47.179Z,84.52
2023-03-07T01:01:17.941Z,83.90
2023-03-07T01:03:49.651Z,83.90
2023-03-07T01:06:19.792Z,83.69
2023-03-07T01:08:48.106Z,84.03
2023-03-07T01:11:16.254Z,85.02
2023-03-07T01:13:44.393Z,85.73
2023-03-07T01:16:14.788Z,86.48
2023-03-07T01:18:43.314Z,85.70
2023-03-07T01:21:17.422Z,86.13
2023-03-07T01:23:45.592Z,86.22
2023-03-07T01:26:14.556Z,85.99
2023-03-07T01:28:42.748Z,84.91
2023-03-07T01:31:11.137Z,84.31
2023-03-07T01:33:39.717Z,85.61
2023-03-07T01:36:19.842Z,86.12
2023-03-07T01:38:48.261Z,85.82
2023-03-07T01:41:17.325Z,86.30
2023-03-07T01:43:45.583Z,85.83
2023-03-07T01:46:34.742Z,87.08
2023-03-07T01:49:07.497Z,86.13
2023-03-07T01:51:39.271Z,86.95
2023-03-07T01:54:09.444Z,87.76
2023-03-07T01:56:39.172Z,86.74
2023-03-07T01:59:07.852Z,86.89
2023-03-07T02:01:37.275Z,87.61
2023-03-07T02:04:12.799Z,87.89
2023-03-07T02:06:42.104Z,87.73
2023-03-07T02:09:15.689Z,86.62
2023-03-07T02:11:45.990Z,86.76
2023-03-07T02:14:14.171Z,86.96
2023-03-07T02:16:43.188Z,86.61
2023-03-07T02:19:37.794Z,87.91
2023-03-07T02:22:12.507Z,87.40
2023-03-07T02:24:49.772Z,86.41
2023-03-07T02:27:19.061Z,86.89
2023-03-07T02:29:46.955Z,87.69
2023-03-07T02:32:15.883Z,87.31
2023-03-07T02:34:44.033Z,87.95
2023-03-07T02:37:14.663Z,87.69
2023-03-07T02:39:44.734Z,88.45
2023-03-07T02:42:16.997Z,87.74
2023-03-07T02:44:48.171Z,88.21
2023-03-07T02:47:16.066Z,89.04
2023-03-07T02:49:44.069Z,88.96
2023-03-07T02:52:12.026Z,88.93
2023-03-07T02:54:39.908Z,89.34
2023-03-07T02:57:07.825Z,88.87
2023-03-07T02:59:35.799Z,88.72
2023-03-07T03:02:05.136Z,89.92
2023-03-07T03:04:33.186Z,89.16
2023-03-07T03:07:01.104Z,88.74
2023-03-07T03:09:29.005Z,89.23
2023-03-07T03:11:57.110Z,89.11
2023-03-07T03:14:25.431Z,88.81
2023-03-07T03:16:53.717Z,89.89
2023-03-07T03:19:23.142Z,89.80
2023-03-07T03:21:51.204Z,89.49
2023-03-07T03:24:19.336Z,89.32
2023-03-07T03:26:47.259Z,89.83
2023-03-07T03:29:15.285Z,89.14
2023-03-07T03:31:43.349Z,88.56
2023-03-07T03:34:11.292Z,89.11
2023-03-07T03:36:40.653Z,89.04
2023-03-07T03:39:11.117Z,89.07
2023-03-07T03:41:39.260Z,88.88
2023-03-07T03:44:08.776Z,89.05
2023-03-07T03:46:37.298Z,88.91
2023-03-07T03:49:05.728Z,89.70
2023-03-07T03:51:34.053Z,88.71
2023-03-07T03:54:04.003Z,88.05
2023-03-07T03:56:32.201Z,88.20
2023-03-07T03:59:00.261Z,88.73
2023-03-07T04:01:29.320Z,87.89
2023-03-07T04:03:58.243Z,87.07
2023-03-07T04:06:28.437Z,87.50
2023-03-07T04:08:56.505Z,87.35
2023-03-07T04:11:26.865Z,87.15
2023-03-07T04:13:54.915Z,87.00
2023-03-07T04:16:23.494Z,86.48
2023-03-07T04:18:52.445Z,86.43
2023-03-07T04:21:21.320Z,86.55
2023-03-07T04:23:50.537Z,86.53
2023-03-07T04:26:18.501Z,86.54
2023-03-07T04:28:49.512Z,86.86
2023-03-07T04:31:20.241Z,85.58
2023-03-07T04:33:48.815Z,85.33
2023-03-07T04:36:17.666Z,85.33
2023-03-07T04:38:46.227Z,85.35
2023-03-07T04:41:15.931Z,85.14
2023-03-07T04:43:45.021Z,85.25
2023-03-07T04:46:16.251Z,84.47
2023-03-07T04:48:44.762Z,84.46
2023-03-07T04:51:13.420Z,84.08
2023-03-07T04:53:41.557Z,84.37
2023-03-07T04:56:10.881Z,83.25
2023-03-07T04:58:39.995Z,83.12
2023-03-07T05:01:07.930Z,83.71
2023-03-07T05:03:37.604Z,83.02
2023-03-07T05:06:07.694Z,82.84
2023-03-07T05:08:36.585Z,82.43
2023-03-07T05:11:04.763Z,81.18
2023-03-07T05:13:32.843Z,80.14
2023-03-07T05:16:01.085Z,80.00
2023-03-07T05:18:29.425Z,78.96
2023-03-07T05:20:58.887Z,79.09
2023-03-07T05:23:26.957Z,78.93
2023-03-07T05:25:55.169Z,78.86
2023-03-07T05:28:23.311Z,78.45
2023-03-07T05:30:51.493Z,79.65
2023-03-07T05:33:20.168Z,78.61
2023-03-07T05:35:48.236Z,77.41
2023-03-07T05:38:17.754Z,77.77
2023-03-07T05:40:46.254Z,77.15
2023-03-07T05:43:14.395Z,76.94
2023-03-07T05:45:42.393Z,76.82
2023-03-07T05:48:11.239Z,76.86
2023-03-07T05:50:39.832Z,76.77
2023-03-07T05:53:07.799Z,76.40
2023-03-07T05:55:37.216Z,76.30
2023-03-07T05:58:05.541Z,76.13
2023-03-07T06:00:33.369Z,75.92
2023-03-07T06:03:04.073Z,76.05
2023-03-07T06:05:31.954Z,76.52
2023-03-07T06:07:59.792Z,74.64
2023-03-07T06:10:27.876Z,75.26
2023-03-07T06:12:57.396Z,75.47
2023-03-07T06:15:25.524Z,74.85
2023-03-07T06:17:53.757Z,74.53
2023-03-07T06:20:21.920Z,74.41
2023-03-07T06:22:49.946Z,74.08
2023-03-07T06:25:21.691Z,73.21
2023-03-07T06:27:50.227Z,73.49
2023-03-07T06:30:19.724Z,73.62
2023-03-07T06:32:47.714Z,72.91
2023-03-07T06:35:15.729Z,72.94
2023-03-07T06:37:43.602Z,72.35
2023-03-07T06:40:12.781Z,72.25
2023-03-07T06:42:40.738Z,72.52
2023-03-07T06:45:10.082Z,72.02
2023-03-07T06:47:40.116Z,72.99
2023-03-07T06:50:09.527Z,72.53
2023-03-07T06:52:37.598Z,72.51
2023-03-07T06:55:06.374Z,72.03
2023-03-07T06:57:38.318Z,71.61
2023-03-07T07:00:08.053Z,72.06
2023-03-07T07:02:36.263Z,71.39
2023-03-07T07:05:06.477Z,70.63
2023-03-07T07:07:34.932Z,70.65
2023-03-07T07:10:04.994Z,70.33
2023-03-07T07:12:33.437Z,70.58
2023-03-07T07:15:02.453Z,69.70
2023-03-07T07:17:31.244Z,70.47
2023-03-07T07:20:00.659Z,70.51
2023-03-07T07:22:30.237Z,70.04
2023-03-07T07:25:00.509Z,70.21
2023-03-07T07:27:28.780Z,70.25
2023-03-07T07:29:57.152Z,70.13
2023-03-07T07:32:25.125Z,69.81
2023-03-07T07:34:53.216Z,69.55
2023-03-07T07:37:24.500Z,69.25
2023-03-07T07:39:53.924Z,69.72
2023-03-07T07:42:22.924Z,68.32
2023-03-07T07:44:51.989Z,67.52
2023-03-07T07:47:20.085Z,66.94
2023-03-07T07:49:48.023Z,67.57
2023-03-07T07:52:16.559Z,67.60
2023-03-07T07:54:47.098Z,67.25
2023-03-07T07:57:16.452Z,67.52
2023-03-07T07:59:44.620Z,67.80
2023-03-07T08:02:14.270Z,67.98
2023-03-07T08:04:42.347Z,66.80
2023-03-07T08:07:10.184Z,66.75
2023-03-07T08:09:38.877Z,65.75
2023-03-07T08:12:07.747Z,65.56
2023-03-07T08:14:37.369Z,64.47
2023-03-07T08:17:05.646Z,64.94
2023-03-07T08:19:33.814Z,65.27
2023-03-07T08:22:02.419Z,67.47
2023-03-07T08:24:40.491Z,68.74
2023-03-07T08:27:09.297Z,71.45
2023-03-07T08:29:38.717Z,72.74
2023-03-07T08:32:07.542Z,73.71
2023-03-07T08:34:35.489Z,74.70
2023-03-07T08:37:03.600Z,73.71
2023-03-07T08:39:31.485Z,73.16
2023-03-07T08:41:59.483Z,72.04
2023-03-07T08:44:28.058Z,71.11
2023-03-07T08:46:57.349Z,71.45
2023-03-07T08:49:25.513Z,71.42
2023-03-07T08:51:53.651Z,69.09
2023-03-07T08:54:21.631Z,68.90
2023-03-07T08:56:49.931Z,67.93
2023-03-07T08:59:21.038Z,69.39
2023-03-07T09:01:49.174Z,68.96
2023-03-07T09:04:21.918Z,70.67
2023-03-07T09:06:49.882Z,71.83
2023-03-07T09:09:19.017Z,72.14
2023-03-07T09:11:47.466Z,73.31
2023-03-07T09:14:15.568Z,73.15
2023-03-07T09:16:45.173Z,73.45
2023-03-07T09:19:13.231Z,72.60
2023-03-07T09:21:42.519Z,71.31
2023-03-07T09:24:10.474Z,72.59
2023-03-07T09:26:38.501Z,72.32
2023-03-07T09:29:06.486Z,70.87
2023-03-07T09:31:34.382Z,71.95
2023-03-07T09:34:02.300Z,73.28
2023-03-07T09:36:30.218Z,72.85
2023-03-07T09:39:03.815Z,72.36
2023-03-07T09:41:54.968Z,72.33
2023-03-07T09:44:34.295Z,70.44
2023-03-07T09:47:13.444Z,70.08
2023-03-07T09:49:47.517Z,68.46
2023-03-07T09:52:17.914Z,67.40
2023-03-07T09:54:51.018Z,66.96
2023-03-07T09:57:24.108Z,64.73
2023-03-07T09:59:56.491Z,63.91
2023-03-07T10:02:29.712Z,63.08
2023-03-07T10:05:04.590Z,62.04
2023-03-07T10:07:33.983Z,62.44
2023-03-07T10:10:06.560Z,61.18
2023-03-07T10:13:11.722Z,60.50
2023-03-07T10:15:47.268Z,60.21
2023-03-07T10:18:46.472Z,59.84
2023-03-07T10:21:19.670Z,59.48
2023-03-07T10:24:27.566Z,57.27
2023-03-07T10:27:02.613Z,55.78
2023-03-07T10:29:36.310Z,56.07
2023-03-07T10:32:22.482Z,56.42
2023-03-07T10:34:59.365Z,58.32
2023-03-07T10:37:42.088Z,59.08
2023-03-07T10:40:18.339Z,60.01
2023-03-07T10:42:47.942Z,60.95
2023-03-07T10:45:17.264Z,61.65
2023-03-07T10:47:45.409Z,61.70
2023-03-07T10:50:31.030Z,62.03
2023-03-07T10:53:02.104Z,62.11
2023-03-07T10:55:37.304Z,62.51
2023-03-07T10:58:22.160Z,60.86
2023-03-07T11:01:03.826Z,60.47
2023-03-07T11:03:52.234Z,61.26
2023-03-07T11:06:30.402Z,60.47
2023-03-07T11:08:58.973Z,60.19
2023-03-07T11:11:33.116Z,60.04
2023-03-07T11:14:13.368Z,60.96
2023-03-07T11:16:44.280Z,60.14
2023-03-07T11:19:43.727Z,59.54
2023-03-07T11:22:24.947Z,60.19
2023-03-07T11:25:00.881Z,59.26
2023-03-07T11:27:36.188Z,60.17
2023-03-07T11:30:31.486Z,61.50
2023-03-07T11:33:12.084Z,62.70
2023-03-07T11:35:54.373Z,62.48
2023-03-07T11:38:36.999Z,62.46
2023-03-07T11:41:11.370Z,62.20
2023-03-07T11:43:53.495Z,58.98
2023-03-07T11:46:36.730Z,57.15
2023-03-07T11:49:21.781Z,55.13
2023-03-07T11:52:00.963Z,55.02
2023-03-07T11:54:39.227Z,51.71
2023-03-07T11:57:16.199Z,47.04
2023-03-07T12:00:19.119Z,46.04
2023-03-07T12:03:16.738Z,44.91
2023-03-07T12:06:19.841Z,45.72
2023-03-07T12:09:09.287Z,45.53
2023-03-07T12:11:54.071Z,45.38
2023-03-07T12:14:31.057Z,44.17
2023-03-07T12:17:11.460Z,43.14
2023-03-07T12:20:06.007Z,42.37
2023-03-07T12:22:44.898Z,43.80
2023-03-07T12:25:24.710Z,42.30
2023-03-07T12:28:34.446Z,43.22
2023-03-07T12:31:09.968Z,42.35
2023-03-07T12:33:51.362Z,41.11
2023-03-07T12:36:30.916Z,40.91
2023-03-07T12:39:06.665Z,40.84
2023-03-07T12:42:02.016Z,40.91
2023-03-07T12:44:39.693Z,41.93
2023-03-07T12:47:18.045Z,41.09
2023-03-07T12:49:54.667Z,38.98
2023-03-07T12:52:33.380Z,38.50
2023-03-07T12:55:09.916Z,40.14
2023-03-07T12:57:43.905Z,40.33
2023-03-07T13:00:19.160Z,39.78
2023-03-07T13:02:54.235Z,40.16
2023-03-07T13:05:23.161Z,40.71
2023-03-07T13:07:53.873Z,41.34
2023-03-07T13:10:25.828Z,42.11
2023-03-07T13:12:54.201Z,42.45
2023-03-07T13:15:48.392Z,41.37
2023-03-07T13:18:29.207Z,40.60
2023-03-07T13:21:33.936Z,39.76
2023-03-07T13:24:38.119Z,39.22
2023-03-07T13:27:20.747Z,39.17
2023-03-07T13:30:19.232Z,39.53
2023-03-07T13:32:59.271Z,40.53
2023-03-07T13:35:57.181Z,40.17
2023-03-07T13:38:55.118Z,40.43
2023-03-07T13:41:47.377Z,41.14
2023-03-07T13:44:30.774Z,41.16
2023-03-07T13:47:05.147Z,40.58
2023-03-07T13:49:45.289Z,40.73
2023-03-07T13:52:33.544Z,40.26
2023-03-07T13:55:06.012Z,40.62
2023-03-07T13:57:42.228Z,41.59
2023-03-07T14:00:33.073Z,42.20
2023-03-07T14:03:03.411Z,42.44
2023-03-07T14:05:35.623Z,41.64
2023-03-07T14:08:04.027Z,41.48
2023-03-07T14:10:33.304Z,40.92
2023-03-07T14:13:30.017Z,38.91
2023-03-07T14:16:15.188Z,40.16
2023-03-07T14:18:56.349Z,39.90
2023-03-07T14:21:37.190Z,39.56
2023-03-07T14:24:29.314Z,39.25
2023-03-07T14:27:00.884Z,40.26
2023-03-07T14:29:31.093Z,39.67
2023-03-07T14:32:02.763Z,39.45
2023-03-07T14:34:32.981Z,39.35
2023-03-07T14:37:04.578Z,39.76
2023-03-07T14:39:44.916Z,39.38
2023-03-07T14:42:24.018Z,39.51
2023-03-07T14:45:05.702Z,39.87
2023-03-07T14:47:47.806Z,40.92
2023-03-07T14:50:19.115Z,40.29
2023-03-07T14:52:47.994Z,40.97
2023-03-07T14:55:22.998Z,40.93
2023-03-07T14:57:54.842Z,40.34
2023-03-07T15:00:32.767Z,41.08
2023-03-07T15:03:04.623Z,41.83
2023-03-07T15:05:35.489Z,41.59
2023-03-07T15:08:03.849Z,41.19
2023-03-07T15:10:40.968Z,41.71
2023-03-07T15:13:14.016Z,41.99
2023-03-07T15:15:50.656Z,43.48
2023-03-07T15:18:27.128Z,44.81
2023-03-07T15:20:58.458Z,45.23
2023-03-07T15:23:29.837Z,45.03
2023-03-07T15:26:05.196Z,44.63
2023-03-07T15:28:39.810Z,43.68
2023-03-07T15:31:11.033Z,42.76
2023-03-07T15:33:49.296Z,42.88
2023-03-07T15:36:30.014Z,42.71
2023-03-07T15:39:41.554Z,42.87
2023-03-07T15:42:20.741Z,47.26
2023-03-07T15:44:55.582Z,50.20
2023-03-07T15:47:27.479Z,51.42
2023-03-07T15:49:59.117Z,52.88
2023-03-07T15:52:38.000Z,53.02
2023-03-07T15:55:08.522Z,54.47
2023-03-07T15:57:42.687Z,53.77
2023-03-07T16:00:19.137Z,53.21
2023-03-07T16:02:48.870Z,52.99
2023-03-07T16:05:37.632Z,52.25
2023-03-07T16:08:14.880Z,52.45
2023-03-07T16:10:49.764Z,53.01
2023-03-07T16:13:20.420Z,53.45
2023-03-07T16:16:00.137Z,54.58
2023-03-07T16:18:31.190Z,54.38
2023-03-07T16:20:59.565Z,54.36
2023-03-07T16:23:31.302Z,54.50
2023-03-07T16:26:02.918Z,54.27
2023-03-07T16:28:31.127Z,54.52
2023-03-07T16:30:59.793Z,54.21
2023-03-07T16:33:29.280Z,54.24
2023-03-07T16:35:57.254Z,54.49
2023-03-07T16:38:25.842Z,54.57
2023-03-07T16:40:57.727Z,54.68
2023-03-07T16:43:33.550Z,54.59
2023-03-07T16:46:03.179Z,55.50
2023-03-07T16:48:32.835Z,54.99
2023-03-07T16:51:01.256Z,54.69
2023-03-07T16:53:29.606Z,54.94
2023-03-07T16:55:59.855Z,55.30
2023-03-07T16:58:33.217Z,55.20
2023-03-07T17:01:01.832Z,55.23
2023-03-07T17:03:34.639Z,55.23
2023-03-07T17:06:02.851Z,55.25
2023-03-07T17:08:31.234Z,55.45
2023-03-07T17:10:59.588Z,55.90
2023-03-07T17:13:28.205Z,55.54
2023-03-07T17:16:03.036Z,56.40
2023-03-07T17:18:36.026Z,59.12
2023-03-07T17:21:06.193Z,62.83
2023-03-07T17:23:34.396Z,66.84
2023-03-07T17:26:05.556Z,68.81
2023-03-07T17:28:33.908Z,70.35
2023-03-07T17:31:02.849Z,69.98
2023-03-07T17:33:30.996Z,70.89
2023-03-07T17:36:00.984Z,69.93
2023-03-07T17:38:30.710Z,70.02
2023-03-07T17:40:58.876Z,70.06
2023-03-07T17:43:26.971Z,69.44
2023-03-07T17:45:55.567Z,68.57
2023-03-07T17:48:24.066Z,68.76
2023-03-07T17:50:52.664Z,68.69
2023-03-07T17:53:21.165Z,67.76
2023-03-07T17:55:53.405Z,67.61
2023-03-07T17:58:21.518Z,67.37
2023-03-07T18:00:49.765Z,66.44
2023-03-07T18:03:17.841Z,67.06
2023-03-07T18:05:45.911Z,66.73
2023-03-07T18:08:13.868Z,66.35
2023-03-07T18:10:41.957Z,66.53
2023-03-07T18:13:15.026Z,66.22
2023-03-07T18:15:47.082Z,65.65
2023-03-07T18:18:16.460Z,65.17
2023-03-07T18:20:44.736Z,64.73
2023-03-07T18:23:16.821Z,64.66
2023-03-07T18:25:44.855Z,64.30
2023-03-07T18:28:15.438Z,63.88
2023-03-07T18:30:43.489Z,64.34
2023-03-07T18:33:11.548Z,64.07
2023-03-07T18:35:42.036Z,63.35
2023-03-07T18:38:10.227Z,62.93
2023-03-07T18:40:38.355Z,63.40
2023-03-07T18:43:06.537Z,64.87
2023-03-07T18:45:36.297Z,65.82
2023-03-07T18:48:04.872Z,66.29
2023-03-07T18:50:32.786Z,66.82
2023-03-07T18:53:03.534Z,67.31
2023-03-07T18:55:34.795Z,66.90
2023-03-07T18:58:02.909Z,67.82
2023-03-07T19:00:32.646Z,67.95
2023-03-07T19:03:04.764Z,67.58
2023-03-07T19:05:33.158Z,67.39
2023-03-07T19:08:04.529Z,67.04
2023-03-07T19:10:35.894Z,67.39
2023-03-07T19:13:07.780Z,67.38
2023-03-07T19:15:37.157Z,67.12
2023-03-07T19:18:08.295Z,67.00
2023-03-07T19:20:36.312Z,67.56
2023-03-07T19:23:04.422Z,67.23
2023-03-07T19:25:35.551Z,66.82
2023-03-07T19:28:03.685Z,66.80
2023-03-07T19:30:35.295Z,67.30
2023-03-07T19:33:03.977Z,66.87
2023-03-07T19:35:36.566Z,67.23
2023-03-07T19:38:04.867Z,67.38
2023-03-07T19:40:33.012Z,67.61
2023-03-07T19:43:01.539Z,67.00
2023-03-07T19:45:34.954Z,67.12
2023-03-07T19:48:21.192Z,67.58
2023-03-07T19:50:54.730Z,68.39
2023-03-07T19:53:43.093Z,68.20
2023-03-07T19:56:21.387Z,68.47
2023-03-07T19:58:55.803Z,67.77
2023-03-07T20:01:35.464Z,68.11
2023-03-07T20:04:20.019Z,67.80
2023-03-07T20:06:53.605Z,67.60
2023-03-07T20:09:31.463Z,67.01
2023-03-07T20:12:04.752Z,66.93
2023-03-07T20:14:46.326Z,67.13
2023-03-07T20:17:36.493Z,65.56
2023-03-07T20:20:19.482Z,66.71
2023-03-07T20:22:49.250Z,66.33
2023-03-07T20:28:20.492Z,65.73
2023-03-07T20:31:40.711Z,64.89
2023-03-07T20:34:29.198Z,65.13
2023-03-07T20:37:08.880Z,65.08
2023-03-07T20:39:57.312Z,64.44
2023-03-07T20:42:54.420Z,64.37
2023-03-07T20:45:36.023Z,64.53
2023-03-07T20:48:08.048Z,64.81
2023-03-07T20:51:28.479Z,65.14
2023-03-07T20:54:25.141Z,65.43
2023-03-07T20:57:25.714Z,65.32
2023-03-07T21:00:24.440Z,65.88
2023-03-07T21:03:05.184Z,64.96
2023-03-07T21:05:46.731Z,64.64
2023-03-07T21:08:51.565Z,65.88
2023-03-07T21:11:40.437Z,65.35
2023-03-07T21:14:38.770Z,64.79
2023-03-07T21:17:23.038Z,64.79
2023-03-07T21:23:16.085Z,65.53
2023-03-07T21:26:11.278Z,64.45
2023-03-07T21:29:26.078Z,65.67
2023-03-07T21:32:22.230Z,65.61
2023-03-07T21:35:03.170Z,66.04
2023-03-07T21:41:06.635Z,66.12
2023-03-07T21:43:51.948Z,65.71
2023-03-07T21:46:20.367Z,66.55
2023-03-07T21:48:49.834Z,66.38
2023-03-07T21:51:18.463Z,66.29
2023-03-07T21:53:48.373Z,67.15
2023-03-07T21:56:17.886Z,66.36
2023-03-07T21:58:49.802Z,66.63
2023-03-07T22:01:19.702Z,65.71
2023-03-07T22:03:49.471Z,65.94
2023-03-07T22:06:17.500Z,65.97
2023-03-07T22:08:45.587Z,67.09
2023-03-07T22:11:14.168Z,67.05
2023-03-07T22:13:44.807Z,68.07
2023-03-07T22:16:15.519Z,68.07
2023-03-07T22:18:43.502Z,68.65
2023-03-07T22:21:17.279Z,68.75
2023-03-07T22:23:46.129Z,68.23
2023-03-07T22:26:14.411Z,68.38
2023-03-07T22:28:42.703Z,68.30
2023-03-07T22:31:13.598Z,68.48
2023-03-07T22:33:42.950Z,68.83
2023-03-07T22:36:14.786Z,69.08
2023-03-07T22:38:43.962Z,68.85
2023-03-07T22:41:14.050Z,69.14
2023-03-07T22:43:42.534Z,69.39
2023-03-07T22:46:11.238Z,69.24
2023-03-07T22:48:39.724Z,69.42
2023-03-07T22:51:14.346Z,69.05
2023-03-07T22:53:42.411Z,69.33
2023-03-07T22:56:15.478Z,69.75
2023-03-07T22:58:43.891Z,69.80
2023-03-07T23:01:13.927Z,69.81
2023-03-07T23:03:44.973Z,70.20
2023-03-07T23:06:22.055Z,70.75
2023-03-07T23:08:52.041Z,70.24
2023-03-07T23:11:21.566Z,70.75
2023-03-07T23:13:49.913Z,70.32
2023-03-07T23:16:20.083Z,70.19
2023-03-07T23:18:50.773Z,70.44
2023-03-07T23:21:25.698Z,69.80
2023-03-07T23:23:55.074Z,70.18
2023-03-07T23:26:36.272Z,69.93
2023-03-07T23:29:26.453Z,70.96
2023-03-07T23:32:19.994Z,70.88
2023-03-07T23:34:57.723Z,70.71
2023-03-07T23:37:42.819Z,71.47
2023-03-07T23:40:37.680Z,71.48
2023-03-07T23:43:11.519Z,71.77
2023-03-07T23:45:52.825Z,72.22
2023-03-07T23:48:43.293Z,72.15
2023-03-07T23:51:24.452Z,72.63
2023-03-07T23:54:13.647Z,72.96
2023-03-07T23:56:49.627Z,72.75
2023-03-07T23:59:23.590Z,71.73
